Time;durP1;ratioP1;P1;durP2;ratioP2;P2;SDS_P1;SDS_P2;PMS_P1;PMS_P2;Temp;Humidity;BMP_temperature;BMP_pressure;BME280_temperature;BME280_humidity;BME280_pressure;Samples;Min_cycle;Max_cycle;Signal;HPM_P1;HPM_P2
2023/07/07 00:00:38;;;;;;;4.97;3.50;;;;;;;;;;4961415;28;20267;-71
2023/07/07 00:03:05;;;;;;;5.15;3.33;;;;;;;;;;4969872;28;20192;-72
2023/07/07 00:05:30;;;;;;;4.82;3.47;;;;;;;;;;4969129;28;20180;-72
2023/07/07 00:07:57;;;;;;;6.50;3.28;;;;;;;;;;4972655;28;20203;-71
2023/07/07 00:10:22;;;;;;;5.63;3.33;;;;;;;;;;4968820;28;21980;-71
2023/07/07 00:12:48;;;;;;;6.75;3.50;;;;;;;;;;4979411;23;20238;-66
2023/07/07 00:15:14;;;;;;;5.50;3.53;;;;;;;;;;4984198;28;20231;-65
2023/07/07 00:17:41;;;;;;;4.03;3.50;;;;;;;;;;4992077;28;20211;-68
2023/07/07 00:20:08;;;;;;;4.82;3.65;;;;;;;;;;4990556;28;20184;-67
2023/07/07 00:22:34;;;;;;;11.20;4.30;;;;;;;;;;4986319;28;20182;-67
2023/07/07 00:24:59;;;;;;;10.38;4.55;;;;;;;;;;4978481;28;20563;-67
2023/07/07 00:27:24;;;;;;;6.88;4.22;;;;;;;;;;4962351;28;20209;-67
2023/07/07 00:29:50;;;;;;;5.60;4.03;;;;;;;;;;4974950;28;20620;-66
2023/07/07 00:32:15;;;;;;;5.88;3.80;;;;;;;;;;4972555;28;20717;-65
2023/07/07 00:34:41;;;;;;;5.18;4.22;;;;;;;;;;4972921;28;20188;-66
2023/07/07 00:37:06;;;;;;;5.57;3.92;;;;;;;;;;4973718;28;20184;-67
2023/07/07 00:39:31;;;;;;;7.88;4.38;;;;;;;;;;4972152;28;20180;-68
2023/07/07 00:41:56;;;;;;;6.15;4.88;;;;;;;;;;4972639;28;20255;-66
2023/07/07 00:44:24;;;;;;;7.75;4.82;;;;;;;;;;4973452;28;20269;-66
2023/07/07 00:46:49;;;;;;;6.47;4.78;;;;;;;;;;4979132;28;20259;-66
2023/07/07 00:49:16;;;;;;;7.30;5.53;;;;;;;;;;4973596;28;20188;-67
2023/07/07 00:51:46;;;;;;;8.15;4.82;;;;;;;;;;4972649;28;20180;-67
2023/07/07 00:54:14;;;;;;;8.52;5.35;;;;;;;;;;4973056;28;20192;-67
2023/07/07 00:56:42;;;;;;;8.73;5.50;;;;;;;;;;4973235;28;20217;-66
2023/07/07 00:59:10;;;;;;;10.30;6.43;;;;;;;;;;4970896;28;20227;-66
2023/07/07 01:01:36;;;;;;;5.93;4.55;;;;;;;;;;4972461;28;20192;-67
2023/07/07 01:04:02;;;;;;;8.88;5.10;;;;;;;;;;4976209;28;20583;-67
2023/07/07 01:06:31;;;;;;;6.25;5.63;;;;;;;;;;4978074;28;20325;-66
2023/07/07 01:09:01;;;;;;;8.70;6.63;;;;;;;;;;4971698;28;20180;-66
2023/07/07 01:11:27;;;;;;;7.85;5.90;;;;;;;;;;4974437;28;20187;-67
2023/07/07 01:13:53;;;;;;;15.07;6.75;;;;;;;;;;4964335;28;20212;-66
2023/07/07 01:16:27;;;;;;;9.57;7.25;;;;;;;;;;4974583;28;20187;-66
2023/07/07 01:19:25;;;;;;;11.20;6.90;;;;;;;;;;4981010;28;20654;-66
2023/07/07 01:22:02;;;;;;;8.70;6.55;;;;;;;;;;4955234;28;20184;-66
2023/07/07 01:24:42;;;;;;;10.77;7.10;;;;;;;;;;4969449;28;20214;-66
2023/07/07 01:27:26;;;;;;;17.83;7.13;;;;;;;;;;4971856;28;20200;-66
2023/07/07 01:30:02;;;;;;;8.20;6.47;;;;;;;;;;4972459;28;20543;-66
2023/07/07 01:32:29;;;;;;;14.00;7.78;;;;;;;;;;4971919;28;20658;-66
2023/07/07 01:34:56;;;;;;;9.77;7.32;;;;;;;;;;4972376;28;20172;-66
2023/07/07 01:37:21;;;;;;;12.00;8.20;;;;;;;;;;4972307;28;20257;-66
2023/07/07 01:39:47;;;;;;;13.05;7.53;;;;;;;;;;4972453;28;20710;-66
2023/07/07 01:42:32;;;;;;;11.48;7.60;;;;;;;;;;4971647;28;20180;-66
2023/07/07 01:45:06;;;;;;;10.80;7.57;;;;;;;;;;4973031;28;20191;-66
2023/07/07 01:47:33;;;;;;;9.85;7.95;;;;;;;;;;4977942;28;20244;-66
2023/07/07 01:49:58;;;;;;;10.88;8.60;;;;;;;;;;4972185;28;20184;-66
2023/07/07 01:52:29;;;;;;;14.48;8.52;;;;;;;;;;4971518;28;20198;-66
2023/07/07 01:55:10;;;;;;;11.65;7.90;;;;;;;;;;4972098;28;20168;-66
2023/07/07 01:57:36;;;;;;;15.00;9.07;;;;;;;;;;4972249;28;20626;-66
2023/07/07 02:00:02;;;;;;;13.15;10.20;;;;;;;;;;4972293;28;20192;-66
2023/07/07 02:02:27;;;;;;;13.00;10.50;;;;;;;;;;4971115;28;20180;-66
2023/07/07 02:04:52;;;;;;;15.38;10.63;;;;;;;;;;4972056;28;20176;-66
2023/07/07 02:07:18;;;;;;;13.30;10.15;;;;;;;;;;4972152;28;20208;-66
2023/07/07 02:09:43;;;;;;;12.82;9.73;;;;;;;;;;4972015;28;20179;-66
2023/07/07 02:12:08;;;;;;;14.55;10.88;;;;;;;;;;4971122;28;20203;-66
2023/07/07 02:14:33;;;;;;;15.90;10.75;;;;;;;;;;4960220;28;20690;-66
2023/07/07 02:16:58;;;;;;;12.55;10.40;;;;;;;;;;4972054;28;20177;-66
2023/07/07 02:19:24;;;;;;;18.90;10.18;;;;;;;;;;4972173;28;20188;-66
2023/07/07 02:21:49;;;;;;;15.70;11.25;;;;;;;;;;4971538;28;20191;-66
2023/07/07 02:24:14;;;;;;;15.23;11.88;;;;;;;;;;4977564;28;20208;-66
2023/07/07 02:26:40;;;;;;;15.10;11.48;;;;;;;;;;4973752;28;20204;-66
2023/07/07 02:29:05;;;;;;;11.55;9.35;;;;;;;;;;4971064;28;20595;-66
2023/07/07 02:31:30;;;;;;;12.77;10.63;;;;;;;;;;4973021;28;20173;-66
2023/07/07 02:33:56;;;;;;;12.18;9.57;;;;;;;;;;4971454;28;20275;-67
2023/07/07 02:36:21;;;;;;;10.32;8.93;;;;;;;;;;4971846;28;20276;-66
2023/07/07 02:38:46;;;;;;;14.02;9.90;;;;;;;;;;4974361;28;20307;-66
2023/07/07 02:41:12;;;;;;;10.93;9.68;;;;;;;;;;4974824;28;20529;-66
2023/07/07 02:43:37;;;;;;;12.10;9.45;;;;;;;;;;4971550;28;20709;-66
2023/07/07 02:46:03;;;;;;;11.38;9.18;;;;;;;;;;4976905;28;20195;-67
2023/07/07 02:48:28;;;;;;;13.32;9.57;;;;;;;;;;4979366;28;20221;-67
2023/07/07 02:50:55;;;;;;;9.85;8.75;;;;;;;;;;4970762;28;20698;-66
2023/07/07 02:53:20;;;;;;;12.52;9.82;;;;;;;;;;4971462;28;20254;-67
2023/07/07 02:55:45;;;;;;;12.82;9.73;;;;;;;;;;4971676;28;20180;-66
2023/07/07 02:58:11;;;;;;;15.27;10.13;;;;;;;;;;4975300;28;20180;-66
2023/07/07 03:00:36;;;;;;;11.60;9.52;;;;;;;;;;4974602;28;20194;-66
2023/07/07 03:03:02;;;;;;;15.20;10.68;;;;;;;;;;4974863;28;20200;-66
2023/07/07 03:05:27;;;;;;;12.80;9.35;;;;;;;;;;4975304;28;20177;-66
2023/07/07 03:07:52;;;;;;;15.48;9.40;;;;;;;;;;4974823;28;20208;-66
2023/07/07 03:10:17;;;;;;;14.63;9.43;;;;;;;;;;4974585;28;20180;-66
2023/07/07 03:12:42;;;;;;;16.98;10.05;;;;;;;;;;4974844;28;20200;-66
2023/07/07 03:15:08;;;;;;;16.52;10.55;;;;;;;;;;4966994;28;20189;-66
2023/07/07 03:17:33;;;;;;;15.80;10.45;;;;;;;;;;4974019;28;20268;-66
2023/07/07 03:19:58;;;;;;;14.27;9.52;;;;;;;;;;4975506;28;20176;-66
2023/07/07 03:22:23;;;;;;;16.88;10.95;;;;;;;;;;4973827;28;20583;-66
2023/07/07 03:24:52;;;;;;;13.63;8.68;;;;;;;;;;4974333;28;20704;-66
2023/07/07 03:27:17;;;;;;;13.40;9.88;;;;;;;;;;4973359;28;20196;-66
2023/07/07 03:29:42;;;;;;;17.30;9.65;;;;;;;;;;4976058;28;20596;-66
2023/07/07 03:32:08;;;;;;;15.43;9.68;;;;;;;;;;4979029;28;20310;-66
2023/07/07 03:34:36;;;;;;;10.85;8.95;;;;;;;;;;4984424;28;20704;-66
2023/07/07 03:37:02;;;;;;;13.88;9.93;;;;;;;;;;4982250;28;20222;-66
2023/07/07 03:39:27;;;;;;;14.75;10.13;;;;;;;;;;4977257;28;20612;-65
2023/07/07 03:41:52;;;;;;;12.85;9.35;;;;;;;;;;4975609;28;20195;-66
2023/07/07 03:44:17;;;;;;;17.50;9.32;;;;;;;;;;4979441;28;20208;-66
2023/07/07 03:46:42;;;;;;;11.13;9.30;;;;;;;;;;4980453;28;20291;-66
2023/07/07 03:49:08;;;;;;;12.70;9.45;;;;;;;;;;4971691;28;20215;-66
2023/07/07 03:51:35;;;;;;;16.48;10.20;;;;;;;;;;4972567;28;20600;-66
2023/07/07 03:54:00;;;;;;;12.55;9.70;;;;;;;;;;4974479;28;20200;-66
2023/07/07 03:56:26;;;;;;;12.57;9.50;;;;;;;;;;4980491;28;20180;-66
2023/07/07 03:58:51;;;;;;;15.23;10.30;;;;;;;;;;4973116;28;20183;-66
2023/07/07 04:01:17;;;;;;;17.10;9.95;;;;;;;;;;4972263;28;20192;-66
2023/07/07 04:03:43;;;;;;;12.90;9.00;;;;;;;;;;4972274;28;20283;-66
2023/07/07 04:06:08;;;;;;;12.13;8.82;;;;;;;;;;4980084;28;20194;-68
2023/07/07 04:08:33;;;;;;;16.50;9.48;;;;;;;;;;4974138;28;20208;-67
2023/07/07 04:10:59;;;;;;;14.75;8.57;;;;;;;;;;4965689;28;20619;-67
2023/07/07 04:13:25;;;;;;;12.15;9.00;;;;;;;;;;4974616;28;20286;-67
2023/07/07 04:16:08;;;;;;;10.18;7.80;;;;;;;;;;4973077;28;20641;-66
2023/07/07 04:18:34;;;;;;;11.55;8.10;;;;;;;;;;4970782;28;20658;-67
2023/07/07 04:21:00;;;;;;;10.32;8.82;;;;;;;;;;4988844;28;20217;-67
2023/07/07 04:23:25;;;;;;;11.23;8.63;;;;;;;;;;4972748;28;20556;-67
2023/07/07 04:25:50;;;;;;;13.18;8.63;;;;;;;;;;4980452;28;20238;-67
2023/07/07 04:28:16;;;;;;;13.25;8.23;;;;;;;;;;4978180;28;20772;-66
2023/07/07 04:30:41;;;;;;;9.52;7.50;;;;;;;;;;4975397;28;20177;-66
2023/07/07 04:33:06;;;;;;;9.90;7.28;;;;;;;;;;4984036;28;20254;-66
2023/07/07 04:35:34;;;;;;;10.40;8.10;;;;;;;;;;4972407;28;20176;-67
2023/07/07 04:37:59;;;;;;;8.93;6.97;;;;;;;;;;4968816;28;20183;-66
2023/07/07 04:40:25;;;;;;;11.27;7.90;;;;;;;;;;4969123;28;20176;-67
2023/07/07 04:42:50;;;;;;;9.52;5.90;;;;;;;;;;4973424;28;20204;-66
2023/07/07 04:45:15;;;;;;;8.60;7.20;;;;;;;;;;4964300;28;20188;-66
2023/07/07 04:47:40;;;;;;;10.98;6.50;;;;;;;;;;4964995;28;20596;-66
2023/07/07 04:50:06;;;;;;;11.88;6.13;;;;;;;;;;4964061;28;20180;-67
2023/07/07 04:52:31;;;;;;;10.02;5.40;;;;;;;;;;4977348;28;20187;-67
2023/07/07 04:54:56;;;;;;;9.57;6.25;;;;;;;;;;4965930;28;20176;-67
2023/07/07 04:57:21;;;;;;;9.23;6.25;;;;;;;;;;4964620;28;20270;-66
2023/07/07 04:59:46;;;;;;;8.35;5.28;;;;;;;;;;4965661;28;20195;-66
2023/07/07 05:02:12;;;;;;;6.60;5.65;;;;;;;;;;4970706;28;20240;-67
2023/07/07 05:04:37;;;;;;;6.68;5.43;;;;;;;;;;4963877;28;20204;-66
2023/07/07 05:07:02;;;;;;;7.30;5.82;;;;;;;;;;4964001;28;20206;-66
2023/07/07 05:09:27;;;;;;;9.55;5.93;;;;;;;;;;4965224;28;20172;-66
2023/07/07 05:11:52;;;;;;;8.38;5.82;;;;;;;;;;4959155;28;20587;-67
2023/07/07 05:14:18;;;;;;;9.23;6.82;;;;;;;;;;4965160;28;20216;-67
2023/07/07 05:16:43;;;;;;;8.27;6.28;;;;;;;;;;4965351;28;20184;-66
2023/07/07 05:19:08;;;;;;;7.43;5.43;;;;;;;;;;4974115;28;20188;-66
2023/07/07 05:21:34;;;;;;;8.38;5.53;;;;;;;;;;4970699;28;20185;-66
2023/07/07 05:23:59;;;;;;;7.45;5.55;;;;;;;;;;4976369;28;20259;-67
2023/07/07 05:26:28;;;;;;;9.88;6.18;;;;;;;;;;4971646;28;20621;-66
2023/07/07 05:28:54;;;;;;;6.97;5.30;;;;;;;;;;4971215;28;20172;-67
2023/07/07 05:31:19;;;;;;;6.57;5.93;;;;;;;;;;4974796;28;20187;-66
2023/07/07 05:33:44;;;;;;;7.32;5.32;;;;;;;;;;4973039;28;20748;-66
2023/07/07 05:36:10;;;;;;;6.53;5.18;;;;;;;;;;4971304;28;20183;-66
2023/07/07 05:38:37;;;;;;;7.82;5.15;;;;;;;;;;4971378;28;20184;-66
2023/07/07 05:41:02;;;;;;;7.18;4.60;;;;;;;;;;4967806;28;20167;-66
2023/07/07 05:43:28;;;;;;;8.18;6.07;;;;;;;;;;4970675;28;20254;-67
2023/07/07 05:45:53;;;;;;;9.00;5.88;;;;;;;;;;4976568;28;20179;-67
2023/07/07 05:48:18;;;;;;;10.05;5.28;;;;;;;;;;4966118;28;20205;-67
2023/07/07 05:50:45;;;;;;;6.57;5.07;;;;;;;;;;4969728;28;20176;-66
2023/07/07 05:53:10;;;;;;;7.47;5.18;;;;;;;;;;4970553;28;20204;-66
2023/07/07 05:55:36;;;;;;;6.90;4.57;;;;;;;;;;4964216;28;20175;-66
2023/07/07 05:58:02;;;;;;;10.77;5.32;;;;;;;;;;4963822;28;20185;-66
2023/07/07 06:00:28;;;;;;;5.88;4.72;;;;;;;;;;4959628;28;20216;-66
2023/07/07 06:02:56;;;;;;;12.02;6.13;;;;;;;;;;4962020;28;20254;-66
2023/07/07 06:05:22;;;;;;;6.82;4.82;;;;;;;;;;4963600;28;20208;-66
2023/07/07 06:07:47;;;;;;;6.10;4.55;;;;;;;;;;4972915;28;20264;-66
2023/07/07 06:10:13;;;;;;;9.02;5.15;;;;;;;;;;4968930;28;20239;-66
2023/07/07 06:12:38;;;;;;;4.88;4.15;;;;;;;;;;4973952;28;20203;-66
2023/07/07 06:15:04;;;;;;;6.18;5.43;;;;;;;;;;4976125;28;20187;-66
2023/07/07 06:17:30;;;;;;;4.88;4.25;;;;;;;;;;4969581;28;20740;-66
2023/07/07 06:19:55;;;;;;;7.97;4.32;;;;;;;;;;4964325;28;20192;-66
2023/07/07 06:22:20;;;;;;;5.18;4.68;;;;;;;;;;4968292;28;20218;-66
2023/07/07 06:24:45;;;;;;;10.90;4.72;;;;;;;;;;4971972;28;20177;-66
2023/07/07 06:27:11;;;;;;;7.10;3.55;;;;;;;;;;4968625;28;20208;-66
2023/07/07 06:29:36;;;;;;;9.25;4.22;;;;;;;;;;4982341;28;20193;-66
2023/07/07 06:32:01;;;;;;;4.57;3.90;;;;;;;;;;4972643;28;20177;-66
2023/07/07 06:34:27;;;;;;;6.00;3.47;;;;;;;;;;4973926;28;20689;-66
2023/07/07 06:36:52;;;;;;;4.68;3.72;;;;;;;;;;4974603;28;20754;-66
2023/07/07 06:39:18;;;;;;;6.45;4.07;;;;;;;;;;4981283;28;20568;-66
2023/07/07 06:41:43;;;;;;;6.10;3.67;;;;;;;;;;4973092;28;20195;-65
2023/07/07 06:44:08;;;;;;;4.85;3.53;;;;;;;;;;4973019;28;20212;-66
2023/07/07 06:46:34;;;;;;;4.38;3.20;;;;;;;;;;4973216;28;20177;-67
2023/07/07 06:49:01;;;;;;;5.47;3.90;;;;;;;;;;4969517;28;20187;-67
2023/07/07 06:51:26;;;;;;;5.85;4.28;;;;;;;;;;4973737;28;20183;-66
2023/07/07 06:53:51;;;;;;;6.72;4.05;;;;;;;;;;4979531;28;20569;-66
2023/07/07 06:56:16;;;;;;;9.00;3.97;;;;;;;;;;4975500;28;20191;-66
2023/07/07 06:58:42;;;;;;;4.50;3.30;;;;;;;;;;4978251;28;20192;-66
2023/07/07 07:01:10;;;;;;;6.38;3.85;;;;;;;;;;4962942;28;20189;-67
2023/07/07 07:03:36;;;;;;;7.65;3.75;;;;;;;;;;4979244;28;20593;-66
2023/07/07 07:06:01;;;;;;;6.38;3.45;;;;;;;;;;4966214;28;20764;-66
2023/07/07 07:08:26;;;;;;;6.10;3.45;;;;;;;;;;4965864;28;20239;-66
2023/07/07 07:10:51;;;;;;;4.75;3.25;;;;;;;;;;4971528;28;20184;-66
2023/07/07 07:13:16;;;;;;;6.45;3.80;;;;;;;;;;4970231;28;20215;-66
2023/07/07 07:15:42;;;;;;;4.47;3.50;;;;;;;;;;4969011;28;21884;-66
2023/07/07 07:18:08;;;;;;;5.35;3.33;;;;;;;;;;4971001;28;20184;-67
2023/07/07 07:20:33;;;;;;;5.40;3.70;;;;;;;;;;4973768;28;20238;-67
2023/07/07 07:22:58;;;;;;;5.13;3.70;;;;;;;;;;4971787;28;20200;-67
2023/07/07 07:25:23;;;;;;;5.65;3.40;;;;;;;;;;4983439;28;20230;-67
2023/07/07 07:27:49;;;;;;;5.80;3.25;;;;;;;;;;4974093;28;20277;-67
2023/07/07 07:30:15;;;;;;;5.05;3.38;;;;;;;;;;4978315;28;20211;-67
2023/07/07 07:32:40;;;;;;;6.55;3.00;;;;;;;;;;4972479;28;20227;-67
2023/07/07 07:35:06;;;;;;;4.35;2.70;;;;;;;;;;4962802;28;20181;-67
2023/07/07 07:37:31;;;;;;;7.63;2.88;;;;;;;;;;4954212;28;20235;-66
2023/07/07 07:39:56;;;;;;;5.15;2.92;;;;;;;;;;4951205;28;20203;-66
2023/07/07 07:42:21;;;;;;;6.38;2.60;;;;;;;;;;4952199;28;20216;-66
2023/07/07 07:44:47;;;;;;;4.18;2.47;;;;;;;;;;4953490;28;20227;-66
2023/07/07 07:47:12;;;;;;;3.85;2.22;;;;;;;;;;4952385;28;20284;-66
2023/07/07 07:49:37;;;;;;;4.57;2.53;;;;;;;;;;4954456;28;20180;-66
2023/07/07 07:52:02;;;;;;;6.15;2.78;;;;;;;;;;4954625;28;20559;-66
2023/07/07 07:54:28;;;;;;;4.72;2.53;;;;;;;;;;4951616;28;20208;-66
2023/07/07 07:56:53;;;;;;;6.57;2.45;;;;;;;;;;4953761;28;20615;-67
2023/07/07 07:59:19;;;;;;;5.55;2.00;;;;;;;;;;4952416;28;20199;-66
2023/07/07 08:01:44;;;;;;;5.00;2.83;;;;;;;;;;4952140;28;20216;-67
2023/07/07 08:04:10;;;;;;;2.35;1.50;;;;;;;;;;4953466;28;20218;-67
2023/07/07 08:06:35;;;;;;;5.90;2.22;;;;;;;;;;4954326;28;20626;-67
2023/07/07 08:09:00;;;;;;;4.53;1.90;;;;;;;;;;4953766;28;20663;-70
2023/07/07 08:11:29;;;;;;;4.85;1.90;;;;;;;;;;4953281;28;20184;-70
2023/07/07 08:13:54;;;;;;;5.40;1.98;;;;;;;;;;4952785;28;20711;-70
2023/07/07 08:16:20;;;;;;;3.75;2.10;;;;;;;;;;4958065;28;20200;-70
2023/07/07 08:18:46;;;;;;;6.72;2.08;;;;;;;;;;4954297;28;20184;-73
2023/07/07 08:21:11;;;;;;;4.43;2.27;;;;;;;;;;4952586;28;20185;-70
2023/07/07 08:23:36;;;;;;;3.58;1.90;;;;;;;;;;4953247;28;20441;-70
2023/07/07 08:26:01;;;;;;;3.10;1.90;;;;;;;;;;4945219;28;20184;-69
2023/07/07 08:28:27;;;;;;;7.75;2.25;;;;;;;;;;4953166;28;20340;-70
2023/07/07 08:30:52;;;;;;;2.42;1.75;;;;;;;;;;4953754;28;20670;-69
2023/07/07 08:33:18;;;;;;;2.95;1.88;;;;;;;;;;4953377;28;20204;-70
2023/07/07 08:35:43;;;;;;;3.10;1.60;;;;;;;;;;4952366;28;20275;-70
2023/07/07 08:38:08;;;;;;;3.63;1.60;;;;;;;;;;4951695;28;20188;-71
2023/07/07 08:40:45;;;;;;;3.47;1.65;;;;;;;;;;4951606;28;20262;-70
2023/07/07 08:43:11;;;;;;;3.70;1.90;;;;;;;;;;4954784;28;20200;-70
2023/07/07 08:45:37;;;;;;;6.40;1.95;;;;;;;;;;4953509;28;20191;-70
2023/07/07 08:48:25;;;;;;;5.30;2.10;;;;;;;;;;4951619;28;20212;-69
2023/07/07 08:50:53;;;;;;;2.63;1.83;;;;;;;;;;4953063;28;20212;-70
2023/07/07 08:53:37;;;;;;;2.33;1.70;;;;;;;;;;4950846;28;20785;-70
2023/07/07 08:56:07;;;;;;;3.08;1.45;;;;;;;;;;4952188;28;20221;-69
2023/07/07 08:58:33;;;;;;;3.83;1.48;;;;;;;;;;4952632;28;20192;-70
2023/07/07 09:01:02;;;;;;;3.23;1.80;;;;;;;;;;4955932;28;20181;-70
2023/07/07 09:03:28;;;;;;;2.65;1.35;;;;;;;;;;4952291;28;20446;-70
2023/07/07 09:05:58;;;;;;;2.13;1.60;;;;;;;;;;4953085;28;20856;-70
2023/07/07 09:08:29;;;;;;;2.97;1.70;;;;;;;;;;4950851;28;20463;-70
2023/07/07 09:11:04;;;;;;;5.00;2.83;;;;;;;;;;4950617;28;20771;-69
2023/07/07 09:13:31;;;;;;;5.45;1.80;;;;;;;;;;4951512;28;20278;-70
2023/07/07 09:16:08;;;;;;;2.55;1.80;;;;;;;;;;4969459;28;20206;-70
2023/07/07 09:18:37;;;;;;;5.75;1.55;;;;;;;;;;4951253;28;20195;-70
2023/07/07 09:21:03;;;;;;;2.90;1.67;;;;;;;;;;4951624;28;20187;-70
2023/07/07 09:23:31;;;;;;;9.18;1.98;;;;;;;;;;4951360;28;20278;-68
2023/07/07 09:26:19;;;;;;;3.35;1.60;;;;;;;;;;4952306;28;20242;-70
2023/07/07 09:28:45;;;;;;;2.80;1.45;;;;;;;;;;4951811;28;20223;-69
2023/07/07 09:31:29;;;;;;;3.75;1.63;;;;;;;;;;4949158;28;20180;-70
2023/07/07 09:33:55;;;;;;;1.92;1.35;;;;;;;;;;4952755;28;20828;-70
2023/07/07 09:36:27;;;;;;;2.63;1.35;;;;;;;;;;4954905;28;20380;-70
2023/07/07 09:39:12;;;;;;;2.80;1.60;;;;;;;;;;4953412;28;20206;-69
2023/07/07 09:41:46;;;;;;;5.82;1.58;;;;;;;;;;4958753;28;20543;-69
2023/07/07 09:44:12;;;;;;;1.88;1.40;;;;;;;;;;4957284;28;20571;-70
2023/07/07 09:46:37;;;;;;;4.38;1.35;;;;;;;;;;4972201;28;20184;-70
2023/07/07 09:49:02;;;;;;;1.90;1.37;;;;;;;;;;4976740;28;20233;-69
2023/07/07 09:51:38;;;;;;;2.08;1.10;;;;;;;;;;4961046;28;20431;-70
2023/07/07 09:54:05;;;;;;;3.10;1.25;;;;;;;;;;4958998;28;20200;-69
2023/07/07 09:56:34;;;;;;;1.60;1.30;;;;;;;;;;4953128;28;20185;-69
2023/07/07 09:59:06;;;;;;;2.00;1.15;;;;;;;;;;4950888;28;20566;-70
2023/07/07 10:01:33;;;;;;;3.13;1.63;;;;;;;;;;4951463;28;20184;-69
2023/07/07 10:03:59;;;;;;;3.13;1.73;;;;;;;;;;4950127;28;20211;-70
2023/07/07 10:06:32;;;;;;;2.88;1.30;;;;;;;;;;4957946;28;20554;-70
2023/07/07 10:08:58;;;;;;;3.33;1.40;;;;;;;;;;4955640;28;20276;-70
2023/07/07 10:11:43;;;;;;;4.20;1.85;;;;;;;;;;4955776;28;20263;-70
2023/07/07 10:14:11;;;;;;;2.38;1.55;;;;;;;;;;4954529;28;20230;-70
2023/07/07 10:16:45;;;;;;;2.33;1.52;;;;;;;;;;4958180;28;20180;-70
2023/07/07 10:19:12;;;;;;;2.75;1.60;;;;;;;;;;4956334;28;20183;-70
2023/07/07 10:21:38;;;;;;;2.00;1.58;;;;;;;;;;4958251;28;20186;-69
2023/07/07 10:24:03;;;;;;;2.90;1.40;;;;;;;;;;4956830;28;20200;-70
2023/07/07 10:26:29;;;;;;;2.03;1.40;;;;;;;;;;4960442;28;20685;-70
2023/07/07 10:28:57;;;;;;;3.58;1.33;;;;;;;;;;4967245;28;20279;-70
2023/07/07 10:31:23;;;;;;;1.88;1.27;;;;;;;;;;4954339;28;20662;-69
2023/07/07 10:33:49;;;;;;;3.45;1.90;;;;;;;;;;4956369;28;20211;-70
2023/07/07 10:36:22;;;;;;;2.50;1.58;;;;;;;;;;4961397;28;20180;-70
2023/07/07 10:38:48;;;;;;;1.90;1.38;;;;;;;;;;4957904;28;20594;-70
2023/07/07 10:41:13;;;;;;;2.47;1.40;;;;;;;;;;4958403;28;20192;-70
2023/07/07 10:43:38;;;;;;;5.80;1.90;;;;;;;;;;4957280;28;20716;-70
2023/07/07 10:46:09;;;;;;;4.57;2.13;;;;;;;;;;4955116;28;20437;-70
2023/07/07 10:48:34;;;;;;;2.60;1.63;;;;;;;;;;4955139;28;20666;-70
2023/07/07 10:51:07;;;;;;;3.53;1.50;;;;;;;;;;4958151;28;20187;-70
2023/07/07 10:53:43;;;;;;;1.83;1.55;;;;;;;;;;4955533;28;20508;-70
2023/07/07 10:56:17;;;;;;;3.28;1.27;;;;;;;;;;4968963;28;20242;-70
2023/07/07 10:58:45;;;;;;;2.25;1.60;;;;;;;;;;4954948;28;20816;-69
2023/07/07 11:01:13;;;;;;;2.58;1.20;;;;;;;;;;4954010;28;20234;-70
2023/07/07 11:03:53;;;;;;;3.63;1.83;;;;;;;;;;4956114;28;20195;-69
2023/07/07 11:06:25;;;;;;;2.15;1.38;;;;;;;;;;4957248;28;20558;-70
2023/07/07 11:08:59;;;;;;;3.22;1.48;;;;;;;;;;4955797;28;21083;-70
2023/07/07 11:11:35;;;;;;;3.03;1.77;;;;;;;;;;4968163;28;20269;-70
2023/07/07 11:14:13;;;;;;;2.40;1.30;;;;;;;;;;4968165;28;20562;-70
2023/07/07 11:16:38;;;;;;;2.20;1.40;;;;;;;;;;4958099;28;20183;-70
2023/07/07 11:19:06;;;;;;;3.57;1.30;;;;;;;;;;4954467;28;20557;-70
2023/07/07 11:21:50;;;;;;;2.20;1.52;;;;;;;;;;4951595;28;20230;-69
2023/07/07 11:24:34;;;;;;;2.50;1.35;;;;;;;;;;4954751;28;20200;-71
2023/07/07 11:27:24;;;;;;;2.10;1.30;;;;;;;;;;4952990;28;20204;-70
2023/07/07 11:29:49;;;;;;;3.30;1.48;;;;;;;;;;4953214;28;20183;-70
2023/07/07 11:32:20;;;;;;;2.20;1.57;;;;;;;;;;4952388;28;20191;-70
2023/07/07 11:34:54;;;;;;;3.03;1.63;;;;;;;;;;4954632;28;20190;-70
2023/07/07 11:37:20;;;;;;;2.33;1.52;;;;;;;;;;4952996;28;20198;-70
2023/07/07 11:40:14;;;;;;;2.23;1.60;;;;;;;;;;4954151;28;21912;-70
2023/07/07 11:42:39;;;;;;;3.42;1.88;;;;;;;;;;4951880;28;20463;-70
2023/07/07 11:45:20;;;;;;;2.40;2.03;;;;;;;;;;4953472;28;20196;-69
2023/07/07 11:47:55;;;;;;;4.22;1.90;;;;;;;;;;4954002;28;20192;-71
2023/07/07 11:50:23;;;;;;;2.70;1.50;;;;;;;;;;4953243;28;20623;-70
2023/07/07 11:53:07;;;;;;;2.83;1.58;;;;;;;;;;4954579;28;20685;-70
2023/07/07 11:55:54;;;;;;;2.17;1.52;;;;;;;;;;4953588;28;20187;-70
2023/07/07 11:58:19;;;;;;;3.55;1.77;;;;;;;;;;4954673;28;20697;-70
2023/07/07 12:00:54;;;;;;;2.35;1.77;;;;;;;;;;4968028;28;20227;-70
2023/07/07 12:03:22;;;;;;;2.67;1.65;;;;;;;;;;4953653;28;20233;-70
2023/07/07 12:05:48;;;;;;;4.47;1.45;;;;;;;;;;4954266;28;20246;-70
2023/07/07 12:08:16;;;;;;;2.92;2.20;;;;;;;;;;4952118;28;20226;-70
2023/07/07 12:10:43;;;;;;;4.43;1.92;;;;;;;;;;4954660;28;21180;-74
2023/07/07 12:13:22;;;;;;;3.50;1.40;;;;;;;;;;4949316;28;20755;-70
2023/07/07 12:15:49;;;;;;;3.45;1.83;;;;;;;;;;4957607;28;20665;-70
2023/07/07 12:18:17;;;;;;;2.53;1.65;;;;;;;;;;4953646;28;20214;-70
2023/07/07 12:20:47;;;;;;;3.92;1.77;;;;;;;;;;4952907;28;20642;-70
2023/07/07 12:23:20;;;;;;;2.60;1.75;;;;;;;;;;4952453;28;20238;-70
2023/07/07 12:25:46;;;;;;;3.05;1.50;;;;;;;;;;4967230;28;20267;-70
2023/07/07 12:28:12;;;;;;;4.80;2.33;;;;;;;;;;4952534;28;20183;-70
2023/07/07 12:30:43;;;;;;;4.00;1.80;;;;;;;;;;4952022;28;20690;-70
2023/07/07 12:33:08;;;;;;;4.18;2.30;;;;;;;;;;4954419;28;20358;-70
2023/07/07 12:35:46;;;;;;;1.77;1.48;;;;;;;;;;4951739;28;20649;-70
2023/07/07 12:38:21;;;;;;;3.05;1.92;;;;;;;;;;4952806;28;20204;-70
2023/07/07 12:40:46;;;;;;;3.25;1.80;;;;;;;;;;4953235;28;20190;-70
2023/07/07 12:43:23;;;;;;;2.25;1.73;;;;;;;;;;4952788;28;20203;-70
2023/07/07 12:45:50;;;;;;;2.45;1.48;;;;;;;;;;4951302;28;20604;-70
2023/07/07 12:48:18;;;;;;;2.92;1.67;;;;;;;;;;4960971;28;20183;-69
2023/07/07 12:50:44;;;;;;;2.65;1.73;;;;;;;;;;4953836;28;20186;-70
2023/07/07 12:53:11;;;;;;;2.83;1.73;;;;;;;;;;4967365;28;20233;-70
2023/07/07 12:55:38;;;;;;;2.67;1.70;;;;;;;;;;4951308;28;20187;-70
2023/07/07 12:58:06;;;;;;;4.05;1.95;;;;;;;;;;4953636;28;20206;-69
2023/07/07 13:00:33;;;;;;;2.15;1.55;;;;;;;;;;4963536;28;20203;-69
2023/07/07 13:03:01;;;;;;;4.20;1.77;;;;;;;;;;4952261;28;20200;-69
2023/07/07 13:05:31;;;;;;;1.83;1.52;;;;;;;;;;4949493;28;20180;-70
2023/07/07 13:08:00;;;;;;;4.30;1.95;;;;;;;;;;4962923;28;20215;-69
2023/07/07 13:10:33;;;;;;;4.05;1.90;;;;;;;;;;4952426;28;20186;-69
2023/07/07 13:13:15;;;;;;;2.63;1.83;;;;;;;;;;4951866;28;20215;-71
2023/07/07 13:15:40;;;;;;;3.33;2.10;;;;;;;;;;4954498;28;20188;-71
2023/07/07 13:18:07;;;;;;;2.60;1.50;;;;;;;;;;4951802;28;20214;-69
2023/07/07 13:20:33;;;;;;;4.18;1.85;;;;;;;;;;4950740;28;20573;-69
2023/07/07 13:23:20;;;;;;;3.85;2.25;;;;;;;;;;4951564;28;20198;-71
2023/07/07 13:25:46;;;;;;;3.38;2.10;;;;;;;;;;4957897;28;20205;-70
2023/07/07 13:28:12;;;;;;;2.55;1.90;;;;;;;;;;4953061;28;20203;-69
2023/07/07 13:30:41;;;;;;;1.98;1.63;;;;;;;;;;4959012;28;20407;-70
2023/07/07 13:33:07;;;;;;;3.25;1.95;;;;;;;;;;4966365;28;20243;-69
2023/07/07 13:35:34;;;;;;;2.72;1.70;;;;;;;;;;4951737;28;20519;-69
2023/07/07 13:38:06;;;;;;;3.33;2.03;;;;;;;;;;4951882;28;20191;-69
2023/07/07 13:40:33;;;;;;;1.98;1.77;;;;;;;;;;4950869;28;20238;-69
2023/07/07 13:42:59;;;;;;;3.58;1.60;;;;;;;;;;4951904;28;20593;-69
2023/07/07 13:45:24;;;;;;;2.83;1.90;;;;;;;;;;4951051;28;21905;-70
2023/07/07 13:47:51;;;;;;;4.10;2.77;;;;;;;;;;4951981;28;20198;-70
2023/07/07 13:50:22;;;;;;;2.95;1.83;;;;;;;;;;4948855;28;20440;-70
2023/07/07 13:52:51;;;;;;;2.63;2.00;;;;;;;;;;4951923;28;20203;-70
2023/07/07 13:55:17;;;;;;;2.05;1.75;;;;;;;;;;4955027;28;20183;-69
2023/07/07 13:57:43;;;;;;;2.65;1.85;;;;;;;;;;4950195;28;20218;-70
2023/07/07 14:00:16;;;;;;;3.20;1.75;;;;;;;;;;4962121;28;20188;-70
2023/07/07 14:02:42;;;;;;;2.22;1.70;;;;;;;;;;4951211;28;20861;-70
2023/07/07 14:05:08;;;;;;;3.10;1.85;;;;;;;;;;4951076;28;20291;-69
2023/07/07 14:07:37;;;;;;;2.13;1.70;;;;;;;;;;4951784;28;20202;-70
2023/07/07 14:10:12;;;;;;;3.60;1.90;;;;;;;;;;4951344;28;20187;-70
2023/07/07 14:12:37;;;;;;;2.47;1.65;;;;;;;;;;4951792;28;20899;-69
2023/07/07 14:15:03;;;;;;;2.20;1.60;;;;;;;;;;4955067;28;20194;-69
2023/07/07 14:17:30;;;;;;;3.00;1.60;;;;;;;;;;4951545;28;20700;-69
2023/07/07 14:19:56;;;;;;;2.70;2.10;;;;;;;;;;4951861;28;20230;-69
2023/07/07 14:22:21;;;;;;;2.83;1.67;;;;;;;;;;4950003;28;20647;-71
2023/07/07 14:24:46;;;;;;;3.90;1.98;;;;;;;;;;4956572;28;20176;-69
2023/07/07 14:27:13;;;;;;;2.30;1.63;;;;;;;;;;4951168;28;20195;-70
2023/07/07 14:29:39;;;;;;;2.72;1.90;;;;;;;;;;4950754;28;20305;-69
2023/07/07 14:32:16;;;;;;;3.85;1.90;;;;;;;;;;4952499;28;20506;-69
2023/07/07 14:34:49;;;;;;;3.28;1.75;;;;;;;;;;4962848;28;20695;-70
2023/07/07 14:37:20;;;;;;;2.47;1.85;;;;;;;;;;4950047;28;20265;-70
2023/07/07 14:39:49;;;;;;;3.80;1.30;;;;;;;;;;4954591;28;20195;-70
2023/07/07 14:42:17;;;;;;;2.50;1.70;;;;;;;;;;4950579;28;20183;-70